Time;durP1;ratioP1;P1;durP2;ratioP2;P2;SDS_P1;SDS_P2;PMS_P1;PMS_P2;Temp;Humidity;BMP_temperature;BMP_pressure;BME280_temperature;BME280_humidity;BME280_pressure;Samples;Min_cycle;Max_cycle;Signal;HPM_P1;HPM_P2
2022/05/23 00:00:23;;;;;;;12.73;8.88;;;;;;;17.28;59.58;100527.47;5003571;28;20028;-82
2022/05/23 00:02:49;;;;;;;10.15;8.43;;;;;;;17.25;59.47;100525.03;5006073;28;20368;-82
2022/05/23 00:05:14;;;;;;;14.85;9.02;;;;;;;17.22;59.33;100526.13;5003090;28;20077;-82
2022/05/23 00:07:43;;;;;;;14.80;9.07;;;;;;;17.19;59.29;100518.34;5010194;28;20033;-82
2022/05/23 00:10:10;;;;;;;14.43;9.55;;;;;;;17.18;59.73;100514.81;5005753;28;20120;-82
2022/05/23 00:12:39;;;;;;;13.10;8.60;;;;;;;17.18;59.44;100524.72;5007779;28;20033;-82
2022/05/23 00:15:08;;;;;;;15.85;8.80;;;;;;;17.15;59.60;100527.66;5010389;28;20088;-82
2022/05/23 00:17:34;;;;;;;11.85;8.00;;;;;;;17.11;59.50;100527.06;5007741;28;20033;-82
2022/05/23 00:19:59;;;;;;;11.90;8.13;;;;;;;17.08;59.77;100519.22;5010393;28;20391;-82
2022/05/23 00:22:25;;;;;;;12.75;7.78;;;;;;;17.07;59.82;100514.00;5008282;28;20076;-82
2022/05/23 00:24:50;;;;;;;15.18;8.88;;;;;;;17.05;60.03;100513.25;5019226;28;20125;-83
2022/05/23 00:27:19;;;;;;;12.05;7.90;;;;;;;16.99;59.84;100511.94;5026257;28;20042;-82
2022/05/23 00:29:44;;;;;;;10.43;8.00;;;;;;;16.98;60.17;100510.22;5007420;28;20147;-82
2022/05/23 00:37:37;;;;;;;13.82;9.05;;;;;;;16.92;60.81;100510.72;5003641;28;20048;-83
2022/05/23 00:40:04;;;;;;;14.10;8.10;;;;;;;16.87;60.80;100503.03;5010602;28;20116;-82
2022/05/23 00:45:18;;;;;;;8.48;7.05;;;;;;;16.86;60.92;100500.50;4995992;28;20091;-82
2022/05/23 00:47:45;;;;;;;12.18;8.00;;;;;;;16.83;61.52;100493.53;5007314;28;20042;-82
2022/05/23 00:50:14;;;;;;;13.20;8.48;;;;;;;16.78;61.38;100493.06;5009762;28;20030;-82
2022/05/23 00:52:44;;;;;;;14.07;8.75;;;;;;;16.77;61.53;100494.03;5004200;28;20545;-82
2022/05/23 00:55:20;;;;;;;11.00;8.05;;;;;;;16.78;61.28;100489.53;5004121;28;20216;-82
2022/05/23 00:57:49;;;;;;;12.02;7.75;;;;;;;16.75;61.57;100489.75;4997479;28;20033;-82
2022/05/23 01:00:15;;;;;;;12.90;8.07;;;;;;;16.76;61.64;100494.16;5004350;28;20029;-83
2022/05/23 01:02:43;;;;;;;12.50;8.18;;;;;;;16.78;61.53;100486.84;5002730;28;20104;-82
2022/05/23 01:05:09;;;;;;;13.52;8.20;;;;;;;16.77;61.85;100487.81;5004872;28;20041;-82
2022/05/23 01:07:35;;;;;;;13.73;7.93;;;;;;;16.76;61.82;100486.97;5009895;28;20488;-82
2022/05/23 01:10:00;;;;;;;11.20;7.75;;;;;;;16.71;62.27;100485.59;5003234;28;20050;-83
2022/05/23 01:12:27;;;;;;;11.10;7.50;;;;;;;16.78;61.87;100490.38;5007298;28;20061;-82
2022/05/23 01:14:55;;;;;;;11.55;8.35;;;;;;;16.77;61.76;100498.56;5008256;28;20034;-82
2022/05/23 01:17:22;;;;;;;12.27;7.70;;;;;;;16.78;61.93;100489.53;5008132;28;20100;-82
2022/05/23 01:19:48;;;;;;;10.43;8.00;;;;;;;16.80;61.65;100491.09;5009110;28;20034;-82
2022/05/23 01:22:32;;;;;;;10.88;7.93;;;;;;;16.84;61.12;100489.84;5006687;28;20034;-82
2022/05/23 01:25:16;;;;;;;;;;;;;;;16.90;60.41;100488.50;4999835;28;20073;-83
2022/05/23 01:27:41;;;;;;;10.30;7.37;;;;;;;16.82;62.03;100485.59;5006405;28;19967;-81
2022/05/23 01:30:07;;;;;;;11.95;8.25;;;;;;;16.83;61.68;100490.00;5001961;28;20066;-82
2022/05/23 01:32:33;;;;;;;11.65;8.15;;;;;;;16.78;62.27;100486.84;5005955;28;20037;-82
2022/05/23 01:34:58;;;;;;;13.35;7.75;;;;;;;16.77;62.32;100482.44;5008839;28;20034;-82
2022/05/23 01:37:23;;;;;;;12.88;7.90;;;;;;;16.69;62.40;100474.97;5008117;28;20034;-82
2022/05/23 01:39:49;;;;;;;12.52;8.18;;;;;;;16.71;62.59;100478.38;5007993;28;20518;-83
2022/05/23 01:42:14;;;;;;;11.75;7.63;;;;;;;16.72;62.49;100481.91;5004752;28;20030;-82
2022/05/23 01:44:39;;;;;;;13.35;7.82;;;;;;;16.69;62.88;100483.03;5005696;28;20430;-82
2022/05/23 01:47:15;;;;;;;9.90;7.43;;;;;;;16.71;62.57;100482.91;5006254;28;20185;-83
2022/05/23 01:49:41;;;;;;;12.77;8.05;;;;;;;16.64;63.04;100483.41;5007388;28;20368;-82
2022/05/23 01:52:07;;;;;;;12.32;7.72;;;;;;;16.60;63.09;100481.97;5005993;28;20025;-82
2022/05/23 01:54:33;;;;;;;12.02;8.10;;;;;;;16.53;63.18;100483.44;5008204;28;20033;-82
2022/05/23 01:57:00;;;;;;;11.20;8.20;;;;;;;16.54;63.53;100484.28;4990733;28;20026;-82
2022/05/23 02:02:09;;;;;;;12.15;7.80;;;;;;;16.50;63.96;100466.72;5002961;28;20052;-82
2022/05/23 02:04:35;;;;;;;14.13;7.93;;;;;;;16.43;63.82;100469.06;5004515;28;20026;-82
2022/05/23 02:07:00;;;;;;;11.32;8.27;;;;;;;16.40;63.79;100463.94;5001395;28;20030;-82
2022/05/23 02:09:28;;;;;;;12.05;8.40;;;;;;;16.35;64.44;100464.31;5008419;28;20045;-82
2022/05/23 02:11:54;;;;;;;16.23;8.30;;;;;;;16.29;64.26;100454.03;5004699;28;20061;-82
2022/05/23 02:14:19;;;;;;;11.65;8.13;;;;;;;16.22;64.75;100457.34;4992075;28;20475;-82
2022/05/23 02:16:45;;;;;;;13.63;7.72;;;;;;;16.17;64.85;100453.19;5005821;28;20029;-82
2022/05/23 02:19:10;;;;;;;10.95;7.50;;;;;;;16.18;65.13;100456.75;5005757;28;20286;-82
2022/05/23 02:21:35;;;;;;;9.35;7.63;;;;;;;16.16;65.01;100456.84;5003656;28;20058;-82
2022/05/23 02:24:04;;;;;;;12.40;7.60;;;;;;;16.13;65.16;100446.34;5000273;28;20025;-83
2022/05/23 02:26:31;;;;;;;12.85;8.27;;;;;;;16.13;64.98;100446.34;5005697;28;20088;-82
2022/05/23 02:28:56;;;;;;;12.82;8.13;;;;;;;16.07;65.26;100443.34;5005023;28;20049;-82
2022/05/23 02:31:22;;;;;;;10.10;7.65;;;;;;;16.11;66.09;100450.16;5006679;28;20022;-82
2022/05/23 02:33:48;;;;;;;12.20;7.93;;;;;;;16.09;66.16;100452.97;4996103;28;20038;-82
2022/05/23 02:36:13;;;;;;;13.68;8.18;;;;;;;16.09;65.88;100449.41;5006513;28;20041;-82
2022/05/23 02:38:38;;;;;;;10.25;7.78;;;;;;;16.09;65.75;100444.03;5002772;28;20377;-82
2022/05/23 02:41:04;;;;;;;13.77;8.82;;;;;;;16.08;65.88;100439.66;4990438;28;20503;-82
2022/05/23 02:43:30;;;;;;;11.90;7.95;;;;;;;16.04;66.14;100430.16;5001987;28;20030;-82
2022/05/23 02:45:56;;;;;;;12.73;8.13;;;;;;;16.03;66.44;100436.50;4993775;28;20118;-82
2022/05/23 02:48:21;;;;;;;11.25;7.65;;;;;;;15.99;66.60;100417.09;4994395;28;20037;-82
2022/05/23 02:50:47;;;;;;;13.75;8.10;;;;;;;16.01;66.66;100408.91;4998454;28;20026;-82
2022/05/23 02:53:12;;;;;;;16.00;8.82;;;;;;;15.99;66.33;100402.81;4994517;28;20030;-82
2022/05/23 02:55:38;;;;;;;13.75;8.10;;;;;;;15.89;66.62;100392.00;4996678;28;20372;-82
2022/05/23 02:58:03;;;;;;;11.73;8.07;;;;;;;15.94;66.57;100387.09;5001421;28;20037;-82
2022/05/23 03:00:28;;;;;;;13.23;8.45;;;;;;;15.88;67.07;100382.19;4993994;28;20065;-82
2022/05/23 03:03:02;;;;;;;14.20;8.88;;;;;;;15.89;67.17;100379.41;4995817;28;20100;-82
2022/05/23 03:05:40;;;;;;;13.13;8.18;;;;;;;15.88;67.35;100366.97;4997783;28;20042;-82
2022/05/23 03:08:05;;;;;;;12.88;9.25;;;;;;;15.84;67.14;100354.78;5002628;28;20033;-82
2022/05/23 03:10:31;;;;;;;12.40;8.68;;;;;;;15.85;67.24;100348.44;4995613;28;20045;-82
2022/05/23 03:12:56;;;;;;;12.98;9.25;;;;;;;15.83;67.32;100349.53;5000179;28;20141;-82
2022/05/23 03:15:21;;;;;;;14.98;8.75;;;;;;;15.77;67.71;100340.16;4995923;28;20022;-82
2022/05/23 03:17:47;;;;;;;11.88;8.95;;;;;;;15.75;68.09;100343.91;4998400;28;20046;-82
2022/05/23 03:20:14;;;;;;;15.45;9.65;;;;;;;15.72;67.82;100339.66;5000164;28;20593;-82
2022/05/23 03:28:08;;;;;;;11.52;8.68;;;;;;;15.61;68.29;100328.91;5002394;28;20568;-82
2022/05/23 03:30:33;;;;;;;11.35;9.00;;;;;;;15.55;68.51;100314.16;4994813;28;20034;-82
2022/05/23 03:32:59;;;;;;;13.73;9.07;;;;;;;15.54;68.65;100314.25;4999742;28;20030;-82
2022/05/23 03:35:26;;;;;;;11.73;9.18;;;;;;;15.45;68.94;100300.63;4989556;28;20023;-82
2022/05/23 03:37:52;;;;;;;11.05;9.38;;;;;;;15.45;69.14;100300.63;4987030;28;20035;-82
2022/05/23 03:40:18;;;;;;;13.10;9.25;;;;;;;15.43;69.17;100291.84;5000458;28;20407;-82
2022/05/23 03:42:43;;;;;;;14.60;10.18;;;;;;;15.40;69.57;100289.41;5004068;28;20084;-82
2022/05/23 03:45:09;;;;;;;14.90;9.48;;;;;;;15.34;69.93;100287.22;4997904;28;20097;-82
2022/05/23 03:47:34;;;;;;;12.13;9.88;;;;;;;15.32;70.15;100289.16;5009683;28;20038;-82
2022/05/23 03:50:00;;;;;;;13.75;9.45;;;;;;;15.27;70.33;100295.88;5006610;28;20019;-82
2022/05/23 03:52:25;;;;;;;13.68;9.70;;;;;;;15.21;70.56;100294.50;4999745;28;20452;-82
2022/05/23 03:54:50;;;;;;;14.63;9.43;;;;;;;15.24;70.80;100286.25;4995457;28;20030;-82
2022/05/23 03:57:16;;;;;;;16.58;9.80;;;;;;;15.25;70.47;100277.22;5009696;28;20037;-84
2022/05/23 03:59:42;;;;;;;13.77;9.73;;;;;;;15.24;70.79;100280.88;5008961;28;20030;-81
2022/05/23 04:02:07;;;;;;;15.05;9.90;;;;;;;15.20;71.35;100274.91;5005329;28;20022;-81
2022/05/23 04:04:32;;;;;;;13.82;9.95;;;;;;;15.26;71.13;100273.59;5010377;28;20053;-81
2022/05/23 04:06:59;;;;;;;13.80;10.50;;;;;;;15.29;71.07;100275.16;5009221;28;20029;-81
2022/05/23 04:09:26;;;;;;;13.20;9.82;;;;;;;15.33;70.84;100274.78;5009384;28;20026;-81
2022/05/23 04:11:51;;;;;;;12.15;10.75;;;;;;;15.36;71.00;100271.84;5004764;28;20033;-82
2022/05/23 04:14:17;;;;;;;13.32;10.35;;;;;;;15.41;70.89;100264.28;4994331;28;20285;-82
2022/05/23 04:16:46;;;;;;;15.32;10.85;;;;;;;15.43;70.90;100265.03;5007586;28;20039;-81
2022/05/23 04:19:12;;;;;;;13.27;10.63;;;;;;;15.47;70.82;100262.97;5004284;28;20113;-81
2022/05/23 04:21:42;;;;;;;15.65;10.73;;;;;;;15.46;70.83;100253.19;5006419;28;20112;-83
2022/05/23 04:24:08;;;;;;;16.02;11.05;;;;;;;15.47;71.04;100254.91;5007633;28;20504;-84
2022/05/23 04:26:34;;;;;;;15.65;10.20;;;;;;;15.49;70.86;100255.63;5007456;28;20511;-84
2022/05/23 04:28:59;;;;;;;15.32;10.80;;;;;;;15.54;70.79;100252.56;5009359;28;20077;-83
2022/05/23 04:31:24;;;;;;;14.00;9.45;;;;;;;15.55;70.82;100246.22;4998072;28;20041;-83
2022/05/23 04:36:34;;;;;;;11.18;9.57;;;;;;;15.63;70.33;100251.81;5005925;28;20395;-83
2022/05/23 04:38:59;;;;;;;13.20;10.20;;;;;;;15.66;70.41;100249.78;4996888;28;20026;-83
2022/05/23 04:41:24;;;;;;;12.00;9.20;;;;;;;15.66;70.75;100232.84;5006331;28;20060;-83
2022/05/23 04:43:50;;;;;;;12.70;9.05;;;;;;;15.68;70.20;100241.63;5004957;28;20391;-83
2022/05/23 04:46:15;;;;;;;11.50;9.10;;;;;;;15.67;70.37;100229.16;5008554;28;20033;-84
2022/05/23 04:51:24;;;;;;;10.07;8.95;;;;;;;15.72;70.23;100215.38;5001588;28;20128;-83
2022/05/23 04:53:53;;;;;;;12.20;9.20;;;;;;;15.81;70.50;100220.84;4999630;28;20065;-83
2022/05/23 04:56:20;;;;;;;9.88;8.23;;;;;;;15.86;70.08;100218.63;4998256;28;20286;-84
2022/05/23 04:58:45;;;;;;;12.00;8.93;;;;;;;15.89;69.75;100220.22;5004882;28;20022;-82
2022/05/23 05:01:11;;;;;;;11.25;8.55;;;;;;;15.95;69.90;100219.69;4999586;28;20030;-84
2022/05/23 05:03:37;;;;;;;10.77;8.13;;;;;;;16.00;69.37;100219.31;4999385;28;20037;-84
2022/05/23 05:06:03;;;;;;;11.70;8.57;;;;;;;16.01;69.70;100216.53;5000771;28;20150;-84
2022/05/23 05:08:29;;;;;;;12.88;9.00;;;;;;;16.09;69.36;100219.41;5006422;28;20447;-84
2022/05/23 05:10:57;;;;;;;13.55;8.30;;;;;;;16.10;68.96;100214.91;5003253;28;20022;-84
2022/05/23 05:13:23;;;;;;;12.18;8.73;;;;;;;16.14;68.99;100200.25;4999689;28;20034;-84
2022/05/23 05:15:48;;;;;;;12.23;8.65;;;;;;;16.14;68.86;100190.34;5000727;28;20644;-84
2022/05/23 05:18:13;;;;;;;9.75;8.65;;;;;;;16.25;69.10;100184.06;4999279;28;20022;-84
2022/05/23 05:20:38;;;;;;;12.75;8.45;;;;;;;16.33;68.28;100180.72;5000388;28;20021;-84
2022/05/23 05:23:04;;;;;;;13.85;8.98;;;;;;;16.35;68.27;100165.34;5008169;28;20026;-84
2022/05/23 05:25:29;;;;;;;10.75;8.63;;;;;;;16.34;68.21;100179.72;5006142;28;20583;-85
2022/05/23 05:27:55;;;;;;;13.27;9.13;;;;;;;16.37;68.45;100168.72;4995528;28;20411;-85
2022/05/23 05:30:21;;;;;;;11.65;8.07;;;;;;;16.40;68.52;100173.84;5002419;28;20032;-85
2022/05/23 05:32:49;;;;;;;11.90;8.55;;;;;;;16.43;68.14;100169.06;5002477;28;20495;-84
2022/05/23 05:35:21;;;;;;;13.88;8.57;;;;;;;16.44;67.67;100170.75;5003134;28;20040;-84
2022/05/23 05:37:54;;;;;;;10.85;8.95;;;;;;;16.46;68.07;100165.25;5004567;28;20032;-85
2022/05/23 05:40:24;;;;;;;11.23;8.85;;;;;;;16.51;68.17;100154.09;5002264;28;20125;-84
2022/05/23 05:42:56;;;;;;;11.77;8.73;;;;;;;16.52;67.86;100145.09;5001595;28;20133;-84
2022/05/23 05:45:29;;;;;;;13.43;8.77;;;;;;;16.68;67.38;100151.69;5004972;28;20395;-85
2022/05/23 05:47:56;;;;;;;12.85;8.60;;;;;;;16.75;67.47;100135.88;5007492;28;20487;-84
2022/05/23 05:50:29;;;;;;;12.70;9.00;;;;;;;16.92;67.44;100137.06;4999428;28;20030;-85
2022/05/23 05:52:58;;;;;;;14.17;9.70;;;;;;;17.00;66.62;100136.41;4999065;28;20034;-84
2022/05/23 05:55:24;;;;;;;14.23;9.32;;;;;;;17.02;66.28;100134.44;4997865;28;20716;-84
2022/05/23 05:57:49;;;;;;;12.98;8.68;;;;;;;17.08;66.48;100125.81;5005562;28;20109;-83
2022/05/23 06:00:16;;;;;;;13.77;8.98;;;;;;;17.14;65.75;100125.28;5001557;28;20502;-83
2022/05/23 06:02:41;;;;;;;11.45;8.60;;;;;;;17.16;65.45;100117.91;5002631;28;20031;-83
2022/05/23 06:05:06;;;;;;;9.90;7.80;;;;;;;17.23;65.29;100115.53;4998377;28;20029;-83
2022/05/23 06:11:23;;;;;;;11.50;8.38;;;;;;;17.31;65.39;100113.84;5008768;28;20044;-84
2022/05/23 06:13:18;;;;;;;12.63;8.20;;;;;;;17.43;64.77;100112.75;5000426;28;20503;-84
2022/05/23 06:15:44;;;;;;;9.05;7.30;;;;;;;17.58;64.55;100113.16;5003075;28;20038;-83
2022/05/23 06:18:10;;;;;;;11.60;7.72;;;;;;;17.66;63.80;100109.78;5005077;28;20034;-83
2022/05/23 06:20:36;;;;;;;9.73;7.03;;;;;;;17.80;63.92;100111.22;5000195;28;20477;-84
2022/05/23 06:23:02;;;;;;;8.98;6.97;;;;;;;17.92;63.14;100105.53;5007377;28;20037;-83
2022/05/23 06:25:28;;;;;;;9.93;6.82;;;;;;;18.03;62.39;100104.53;5006820;28;20025;-84
2022/05/23 06:27:53;;;;;;;9.65;7.32;;;;;;;18.12;62.03;100100.13;5003294;28;20036;-84
2022/05/23 06:30:19;;;;;;;9.88;7.40;;;;;;;18.17;61.70;100096.00;5006020;28;20164;-83
2022/05/23 06:32:45;;;;;;;10.05;7.13;;;;;;;18.30;62.20;100093.00;5007968;28;20502;-83
2022/05/23 06:35:11;;;;;;;10.70;7.10;;;;;;;18.43;60.92;100098.06;5000539;28;20034;-83
2022/05/23 06:37:38;;;;;;;10.70;7.70;;;;;;;18.38;60.67;100090.41;5003049;28;20041;-84
2022/05/23 06:40:07;;;;;;;11.63;6.90;;;;;;;18.40;61.15;100088.44;5000994;28;20052;-83
2022/05/23 06:42:32;;;;;;;10.50;7.15;;;;;;;18.52;61.03;100088.25;5004387;28;20105;-83
2022/05/23 06:44:59;;;;;;;9.25;6.75;;;;;;;18.57;60.45;100088.66;5004153;28;20143;-84
2022/05/23 06:47:25;;;;;;;13.35;6.60;;;;;;;18.71;61.04;100098.16;5001046;28;20022;-83
2022/05/23 06:49:50;;;;;;;11.85;6.78;;;;;;;18.85;60.53;100094.94;5003849;28;20049;-82
2022/05/23 06:52:15;;;;;;;10.82;6.15;;;;;;;18.98;59.50;100095.47;4999772;28;20025;-84
2022/05/23 06:54:41;;;;;;;13.18;8.25;;;;;;;19.02;59.94;100101.38;5004800;28;20061;-85
2022/05/23 06:57:07;;;;;;;12.13;6.55;;;;;;;19.01;60.00;100102.38;5002400;28;20026;-83
2022/05/23 06:59:33;;;;;;;11.98;6.63;;;;;;;18.97;59.73;100103.69;5003514;28;20034;-84
2022/05/23 07:01:59;;;;;;;9.23;6.10;;;;;;;18.96;59.37;100100.16;5008411;28;20352;-84
2022/05/23 07:04:24;;;;;;;12.05;7.03;;;;;;;18.92;59.90;100096.91;5008220;28;20093;-83
2022/05/23 07:12:20;;;;;;;10.48;7.45;;;;;;;18.66;60.04;100094.00;5004492;28;19920;-85
2022/05/23 07:14:46;;;;;;;10.95;7.07;;;;;;;18.62;60.45;100097.16;5003733;28;20379;-82
2022/05/23 07:17:12;;;;;;;14.57;7.30;;;;;;;18.71;60.60;100093.59;5009030;28;20083;-82
2022/05/23 07:19:39;;;;;;;11.48;7.22;;;;;;;18.85;60.52;100092.25;5005176;28;20045;-86
2022/05/23 07:22:05;;;;;;;12.52;7.10;;;;;;;18.90;60.26;100089.97;5005642;28;20125;-82
2022/05/23 07:24:31;;;;;;;11.93;7.00;;;;;;;18.97;59.89;100093.75;5009822;28;20036;-84
2022/05/23 07:26:57;;;;;;;13.48;7.03;;;;;;;19.09;60.30;100089.84;5000939;28;20279;-81
2022/05/23 07:29:22;;;;;;;12.13;7.05;;;;;;;19.24;59.75;100090.19;5000086;28;20050;-83
2022/05/23 07:31:49;;;;;;;10.38;6.25;;;;;;;19.37;58.66;100104.16;5002552;28;20364;-82
2022/05/23 07:34:14;;;;;;;8.07;6.30;;;;;;;19.52;58.50;100100.91;5009302;28;20072;-82
2022/05/23 07:36:40;;;;;;;9.50;6.07;;;;;;;19.70;58.19;100104.50;4998877;28;20068;-82
2022/05/23 07:39:08;;;;;;;10.23;6.63;;;;;;;19.87;57.13;100102.81;5006520;28;20022;-81
2022/05/23 07:41:34;;;;;;;9.85;5.78;;;;;;;20.09;56.91;100093.34;5005831;28;20042;-81
2022/05/23 07:43:59;;;;;;;7.63;5.47;;;;;;;20.36;56.11;100079.69;5007798;28;20037;-81
2022/05/23 07:46:24;;;;;;;11.38;5.82;;;;;;;20.97;54.72;100072.41;5000890;28;20133;-82
2022/05/23 07:48:51;;;;;;;6.65;5.32;;;;;;;22.48;52.04;100064.88;5006789;28;20133;-82
2022/05/23 07:51:19;;;;;;;10.20;5.30;;;;;;;23.90;47.16;100052.94;5010382;28;20116;-82
2022/05/23 08:02:01;;;;;;;6.35;4.97;;;;;;;23.24;46.26;100085.97;4955418;28;20551;-83
2022/05/23 08:04:27;;;;;;;9.52;4.70;;;;;;;23.20;46.74;100076.50;4951305;28;20043;-82
2022/05/23 08:06:53;;;;;;;6.90;5.03;;;;;;;23.30;46.47;100066.25;4941758;28;20042;-82
2022/05/23 08:09:19;;;;;;;12.43;5.38;;;;;;;23.55;46.31;100066.09;4944575;28;20499;-83
2022/05/23 08:11:48;;;;;;;8.30;4.80;;;;;;;23.72;45.73;100058.69;4953299;28;20039;-82
2022/05/23 08:14:14;;;;;;;9.52;5.53;;;;;;;23.84;45.27;100044.47;4947314;28;20592;-82
2022/05/23 08:16:39;;;;;;;9.02;5.18;;;;;;;23.52;45.43;100042.00;4941535;28;20046;-82
2022/05/23 08:19:06;;;;;;;6.28;4.97;;;;;;;23.01;46.23;100041.66;4944614;28;20766;-82
2022/05/23 08:21:32;;;;;;;10.30;5.03;;;;;;;22.51;47.61;100046.41;4951970;28;20038;-82
2022/05/23 08:23:57;;;;;;;9.93;5.70;;;;;;;22.13;48.24;100039.91;4952943;28;20120;-82
2022/05/23 08:26:24;;;;;;;9.10;5.25;;;;;;;21.79;48.99;100040.94;4946043;28;20042;-81
2022/05/23 08:28:49;;;;;;;13.23;6.05;;;;;;;21.48;50.03;100038.03;4946453;28;20086;-81
2022/05/23 08:31:15;;;;;;;9.32;5.55;;;;;;;21.04;51.49;100029.31;4942250;29;20114;-84
2022/05/23 08:33:40;;;;;;;9.73;6.18;;;;;;;20.59;55.89;100033.22;4957269;28;20469;-84
2022/05/23 08:36:06;;;;;;;10.75;6.00;;;;;;;20.33;59.19;100031.38;4944688;28;20688;-84
2022/05/23 08:38:31;;;;;;;9.25;6.25;;;;;;;20.39;56.51;100011.78;4958233;28;20164;-82
2022/05/23 08:41:05;;;;;;;8.60;6.20;;;;;;;20.51;56.29;100006.13;4996330;28;20531;-82
2022/05/23 08:43:49;;;;;;;10.70;6.07;;;;;;;20.63;56.26;99999.44;5002318;28;20042;-81
2022/05/23 08:46:33;;;;;;;9.65;6.15;;;;;;;20.62;55.96;99979.66;4999897;28;20088;-82
2022/05/23 08:49:14;;;;;;;10.38;6.05;;;;;;;20.82;55.56;99990.22;4996631;28;20044;-82
2022/05/23 08:51:58;;;;;;;9.63;5.80;;;;;;;20.95;54.93;99989.75;4995399;28;20119;-81
2022/05/23 08:55:01;;;;;;;9.90;6.50;;;;;;;21.06;53.94;100000.22;5002708;28;20743;-83
2022/05/23 08:57:55;;;;;;;10.90;5.97;;;;;;;21.08;53.90;99996.34;5000112;28;20042;-84
2022/05/23 09:00:26;;;;;;;15.25;6.55;;;;;;;20.97;53.38;99987.69;5017463;28;20023;-81
2022/05/23 09:02:55;;;;;;;11.02;6.20;;;;;;;20.86;54.19;99984.31;5006831;28;20113;-82
2022/05/23 09:05:29;;;;;;;9.60;6.25;;;;;;;20.81;53.88;99970.41;5003411;28;20145;-82
2022/05/23 09:07:58;;;;;;;13.98;6.22;;;;;;;20.84;53.87;99964.69;4999691;28;20096;-84
2022/05/23 09:10:49;;;;;;;11.27;6.20;;;;;;;21.04;53.85;99977.91;4998201;28;20022;-84
2022/05/23 09:13:17;;;;;;;7.05;5.70;;;;;;;21.16;52.96;99962.22;5002978;28;20030;-88
2022/05/23 09:15:46;;;;;;;9.68;5.70;;;;;;;21.23;52.62;99958.63;5004215;28;20032;-89
2022/05/23 09:18:16;;;;;;;9.02;5.35;;;;;;;21.25;52.41;99972.88;5006080;28;20518;-85
2022/05/23 09:20:47;;;;;;;10.43;5.35;;;;;;;21.17;52.51;99966.59;5009132;28;20018;-84
2022/05/23 09:23:35;;;;;;;11.10;5.55;;;;;;;21.21;52.85;99957.97;5002642;28;20034;-83
2022/05/23 09:26:11;;;;;;;7.95;5.18;;;;;;;21.14;53.48;99951.53;5003791;28;21428;-85
2022/05/23 09:28:38;;;;;;;9.40;5.45;;;;;;;21.21;53.39;99951.72;5004880;28;20477;-85
2022/05/23 09:31:41;;;;;;;8.40;5.47;;;;;;;21.50;53.39;99949.38;5004565;28;20061;-85
2022/05/23 09:34:27;;;;;;;10.52;6.00;;;;;;;21.79;51.88;99932.59;5002347;28;20044;-85
2022/05/23 09:36:52;;;;;;;7.38;5.50;;;;;;;22.04;50.78;99917.09;5010280;28;20029;-85
2022/05/23 09:39:23;;;;;;;7.72;5.07;;;;;;;22.28;50.79;99916.22;4999892;28;20545;-85
2022/05/23 09:47:47;;;;;;;7.25;5.40;;;;;;;26.73;40.46;99908.09;5007980;28;20045;-85
2022/05/23 09:50:27;;;;;;;7.95;5.15;;;;;;;28.23;40.10;99892.97;5004193;28;20129;-85
2022/05/23 09:52:57;;;;;;;9.63;5.25;;;;;;;29.04;35.80;99889.63;5005635;28;20061;-85
2022/05/23 09:55:31;;;;;;;7.43;4.50;;;;;;;29.87;35.73;99883.03;5005785;28;20037;-85
2022/05/23 09:58:00;;;;;;;8.50;5.13;;;;;;;30.38;33.23;99884.56;5006116;28;20530;-85
2022/05/23 10:00:32;;;;;;;16.00;5.30;;;;;;;31.50;31.36;99871.91;5004978;28;20057;-86
2022/05/23 10:02:59;;;;;;;6.40;4.78;;;;;;;32.69;28.95;99874.25;5007545;28;20305;-86
2022/05/23 10:05:31;;;;;;;8.68;4.18;;;;;;;33.47;28.61;99874.50;5005435;28;20053;-86
2022/05/23 10:08:00;;;;;;;8.00;4.60;;;;;;;33.86;27.07;99866.25;4993233;28;20057;-86
2022/05/23 10:10:31;;;;;;;6.53;4.25;;;;;;;34.62;26.46;99874.72;4997841;28;20281;-85
2022/05/23 10:13:18;;;;;;;5.55;4.20;;;;;;;35.43;25.78;99877.44;5007489;28;20033;-86
2022/05/23 10:15:46;;;;;;;5.20;3.90;;;;;;;34.80;24.85;99871.59;5004985;28;20044;-86
2022/05/23 10:18:22;;;;;;;6.03;4.10;;;;;;;35.02;25.71;99884.53;5003937;28;20052;-85
2022/05/23 10:20:48;;;;;;;7.07;4.10;;;;;;;35.12;24.92;99884.66;5004951;28;20589;-86
2022/05/23 10:23:14;;;;;;;9.38;4.10;;;;;;;35.34;24.69;99876.25;5007855;28;20018;-86
2022/05/23 10:25:57;;;;;;;6.80;4.20;;;;;;;35.63;24.32;99872.06;5000371;28;20084;-85
2022/05/23 10:28:48;;;;;;;8.88;4.70;;;;;;;35.73;25.23;99876.81;5005012;28;20100;-85
2022/05/23 10:31:25;;;;;;;9.63;4.93;;;;;;;36.40;24.05;99864.16;5000164;28;20072;-85
2022/05/23 10:33:59;;;;;;;6.20;3.83;;;;;;;36.97;22.77;99874.31;4999964;28;20029;-85
2022/05/23 10:36:29;;;;;;;5.75;4.30;;;;;;;37.17;21.80;99858.81;5001835;28;20392;-85
2022/05/23 10:42:07;;;;;;;5.97;3.50;;;;;;;35.25;25.43;99855.72;5006954;28;20514;-86
2022/05/23 10:45:03;;;;;;;5.72;3.35;;;;;;;35.27;24.67;99839.69;5005457;28;20117;-85
2022/05/23 10:47:43;;;;;;;5.05;3.42;;;;;;;34.04;24.38;99832.88;5004113;28;20021;-85
2022/05/23 10:50:40;;;;;;;5.78;3.20;;;;;;;34.48;23.90;99824.56;5003102;28;20503;-85
2022/05/23 10:53:37;;;;;;;4.93;3.30;;;;;;;35.90;23.24;99818.50;4996904;28;20087;-85
2022/05/23 10:56:25;;;;;;;3.30;2.90;;;;;;;37.39;22.04;99818.56;5004473;28;20105;-86
2022/05/23 10:58:52;;;;;;;6.68;4.60;;;;;;;37.58;21.00;99807.72;4995588;28;20373;-86
2022/05/23 11:01:27;;;;;;;4.45;3.40;;;;;;;38.44;20.11;99797.38;4994425;28;20033;-86
2022/05/23 11:04:19;;;;;;;4.00;3.17;;;;;;;40.11;21.17;99786.94;5006773;28;20034;-86
2022/05/23 11:07:24;;;;;;;6.47;3.70;;;;;;;40.76;19.88;99778.72;5005751;28;20053;-86
2022/05/23 11:10:06;;;;;;;7.80;3.60;;;;;;;40.98;18.76;99772.53;5004164;28;20303;-86
2022/05/23 11:12:56;;;;;;;5.65;3.55;;;;;;;41.54;18.52;99761.16;5005786;28;20488;-82
2022/05/23 11:15:28;;;;;;;6.95;3.80;;;;;;;40.83;18.19;99743.72;5000651;28;20029;-83
2022/05/23 11:18:04;;;;;;;8.40;4.17;;;;;;;40.80;18.81;99743.50;4999718;28;20502;-86
2022/05/23 11:20:33;;;;;;;8.38;3.72;;;;;;;39.82;18.63;99732.94;5007795;28;20377;-93
2022/05/23 11:23:06;;;;;;;6.85;3.60;;;;;;;37.71;20.37;99739.66;5005342;28;20026;-87
2022/05/23 11:25:37;;;;;;;5.03;3.28;;;;;;;35.48;22.48;99732.78;5007350;28;20034;-87
2022/05/23 11:34:27;;;;;;;6.05;2.88;;;;;;;32.29;26.21;99703.53;5007568;28;20073;-85
2022/05/23 11:37:00;;;;;;;8.63;3.05;;;;;;;32.14;26.57;99720.56;4998014;28;20029;-88
2022/05/23 11:39:46;;;;;;;4.60;2.60;;;;;;;33.63;25.45;99710.88;5005398;28;20108;-86
2022/05/23 11:42:12;;;;;;;5.75;3.08;;;;;;;33.48;25.37;99702.41;4999684;28;20026;-86
2022/05/23 11:44:48;;;;;;;5.60;2.47;;;;;;;32.17;25.54;99700.00;4998612;28;20116;-86
2022/05/23 11:47:24;;;;;;;6.50;3.10;;;;;;;30.58;27.54;99690.16;5002610;28;20466;-86
2022/05/23 11:50:02;;;;;;;3.88;2.38;;;;;;;29.69;28.27;99703.69;5006489;28;20136;-87
2022/05/23 11:52:40;;;;;;;4.57;2.45;;;;;;;28.87;29.21;99697.56;5003170;28;20057;-86
2022/05/23 11:55:09;;;;;;;6.00;2.45;;;;;;;28.33;30.35;99687.25;5004767;28;20026;-86
2022/05/23 11:57:40;;;;;;;6.53;2.40;;;;;;;28.19;29.84;99681.06;5002078;28;20105;-86
2022/05/23 12:00:27;;;;;;;27.38;3.67;;;;;;;27.99;30.23;99682.00;5000133;28;20042;-86
2022/05/23 12:03:09;;;;;;;47.88;8.43;;;;;;;27.48;31.36;99669.22;5010313;28;20388;-86
2022/05/23 12:05:35;;;;;;;3.03;2.40;;;;;;;27.15;31.18;99674.78;5006658;28;20484;-85
2022/05/23 12:08:04;;;;;;;5.40;2.47;;;;;;;26.96;32.38;99673.75;5006737;28;20423;-86
2022/05/23 12:10:36;;;;;;;6.32;2.60;;;;;;;26.90;33.21;99674.59;5003329;28;20136;-85
2022/05/23 12:13:11;;;;;;;4.28;2.40;;;;;;;26.88;33.55;99673.13;5010759;28;20030;-85
2022/05/23 12:15:42;;;;;;;4.40;2.47;;;;;;;26.80;33.30;99658.66;5008769;28;20026;-85
2022/05/23 12:18:08;;;;;;;2.92;2.50;;;;;;;26.89;34.29;99658.44;5003087;28;20042;-85
2022/05/23 12:20:43;;;;;;;3.38;2.50;;;;;;;27.10;33.14;99651.91;5010940;28;20185;-85
2022/05/23 12:23:13;;;;;;;5.22;2.50;;;;;;;27.25;34.05;99653.31;5007038;28;20426;-85
2022/05/23 12:25:39;;;;;;;5.15;2.35;;;;;;;27.25;33.30;99655.19;5007588;28;20326;-85